Terminal Aerodrome Forecast
Issued by NWS Bismarck, ND

Home | Current Version | Previous Version | Graphics & Text | Print | Product List | Glossary On
Versions: 1 2 3 4 5 6 7 8 9 10 11 12 13 14 15 16 17
000
FTUS43 KBIS 220300 AAA
TAFBIS
TAF AMD
KBIS 220327Z 2203/2224 15006KT 2SM BR OVC002
     FM221000 05007KT 1SM -SN BR SCT002 OVC005
     FM221300 35011KT 1SM -SN BR OVC008=

USA.gov is the U.S. government's official web portal to all federal, state and local government web resources and services.